Time;durP1;ratioP1;P1;durP2;ratioP2;P2;SDS_P1;SDS_P2;PMS_P1;PMS_P2;Temp;Humidity;BMP_temperature;BMP_pressure;BME280_temperature;BME280_humidity;BME280_pressure;Samples;Min_cycle;Max_cycle;Signal;HPM_P1;HPM_P2
2022/07/11 00:01:39;;;;;;;19.90;10.43;;;;;;;19.82;100.00;96433.75;1710009;84;21043;-73
2022/07/11 00:04:06;;;;;;;19.32;10.80;;;;;;;19.82;100.00;96427.47;1710187;84;21500;-73
2022/07/11 00:06:35;;;;;;;19.70;11.03;;;;;;;19.80;100.00;96427.78;1680391;84;21548;-73
2022/07/11 00:09:02;;;;;;;20.62;11.35;;;;;;;19.77;100.00;96417.45;1710135;84;21074;-74
2022/07/11 00:11:29;;;;;;;18.20;11.53;;;;;;;;;;1673645;84;21133;-73
2022/07/11 00:13:56;;;;;;;18.17;11.68;;;;;;;19.73;100.00;96426.87;1685539;84;21034;-72
2022/07/11 00:16:24;;;;;;;20.00;11.75;;;;;;;19.73;100.00;96433.72;1707176;84;21010;-74
2022/07/11 00:18:53;;;;;;;18.12;11.25;;;;;;;19.73;100.00;96427.41;1686554;83;21078;-72
2022/07/11 00:21:20;;;;;;;21.65;12.20;;;;;;;19.73;100.00;96421.93;1737192;82;21011;-72
2022/07/11 00:23:48;;;;;;;19.05;11.70;;;;;;;19.76;100.00;96418.59;1747716;82;21038;-73
2022/07/11 00:26:15;;;;;;;20.12;12.13;;;;;;;19.77;100.00;96406.48;1716650;82;21534;-73
2022/07/11 00:28:42;;;;;;;20.70;11.20;;;;;;;19.78;100.00;96399.89;1747973;82;21038;-72
2022/07/11 00:31:10;;;;;;;18.02;10.35;;;;;;;19.78;100.00;96399.89;1747630;82;20999;-71
2022/07/11 00:33:38;;;;;;;16.17;10.80;;;;;;;19.79;100.00;96389.15;1748066;82;21488;-72
2022/07/11 00:36:06;;;;;;;18.90;11.03;;;;;;;19.81;100.00;96384.72;1747918;82;21025;-73
2022/07/11 00:38:34;;;;;;;18.40;10.45;;;;;;;19.81;100.00;96381.98;1716988;82;21041;-73
2022/07/11 00:41:01;;;;;;;21.73;10.13;;;;;;;19.82;100.00;96374.81;1747888;82;21529;-73
2022/07/11 00:43:36;;;;;;;19.55;10.35;;;;;;;19.82;100.00;96365.80;1716592;82;21014;-73
2022/07/11 00:46:04;;;;;;;16.70;9.73;;;;;;;19.82;100.00;96355.63;1716787;82;21010;-74
2022/07/11 00:48:31;;;;;;;15.85;9.65;;;;;;;19.82;100.00;96349.34;1716706;82;21034;-74
2022/07/11 00:50:58;;;;;;;16.48;9.80;;;;;;;19.82;100.00;96341.13;1748064;81;21034;-72
2022/07/11 00:53:26;;;;;;;16.60;9.48;;;;;;;19.84;100.00;96341.60;1716825;82;21073;-73
2022/07/11 00:55:53;;;;;;;19.70;10.40;;;;;;;19.84;100.00;96328.69;1748152;81;20998;-73
2022/07/11 00:58:20;;;;;;;16.30;9.25;;;;;;;19.85;100.00;96326.21;1731548;82;21022;-73
2022/07/11 01:00:48;;;;;;;14.00;9.43;;;;;;;19.86;100.00;96311.93;1747685;81;21050;-74
2022/07/11 01:03:16;;;;;;;16.82;9.98;;;;;;;19.87;100.00;96303.95;1747845;82;21028;-72
2022/07/11 01:05:43;;;;;;;18.65;10.15;;;;;;;19.87;100.00;96296.53;1747853;82;21026;-72
2022/07/11 01:08:10;;;;;;;16.67;10.43;;;;;;;19.87;100.00;96292.42;1716318;82;21078;-73
2022/07/11 01:10:37;;;;;;;16.90;11.15;;;;;;;19.87;100.00;96284.77;1747991;82;21045;-73
2022/07/11 01:13:04;;;;;;;18.12;11.60;;;;;;;19.88;100.00;96275.41;1732184;82;21067;-73
2022/07/11 01:15:36;;;;;;;20.55;12.78;;;;;;;19.87;100.00;96266.95;1729482;83;21079;-73
2022/07/11 01:18:03;;;;;;;22.98;14.10;;;;;;;19.86;100.00;96263.38;1729574;83;21071;-72
2022/07/11 01:20:30;;;;;;;22.15;14.63;;;;;;;19.89;100.00;96259.20;1729870;82;21047;-73
2022/07/11 01:23:06;;;;;;;23.85;15.25;;;;;;;19.87;100.00;96253.25;1725821;81;21083;-73
2022/07/11 01:25:34;;;;;;;24.45;16.80;;;;;;;19.87;100.00;96253.25;1712101;84;21593;-73
2022/07/11 01:28:06;;;;;;;26.75;18.67;;;;;;;19.88;100.00;96237.02;1712064;84;21102;-73
2022/07/11 01:30:33;;;;;;;30.00;20.40;;;;;;;19.91;100.00;96229.53;1740555;81;21055;-73
2022/07/11 01:33:01;;;;;;;25.52;20.27;;;;;;;19.90;100.00;96228.73;1740314;80;21083;-73
2022/07/11 01:35:29;;;;;;;26.50;19.90;;;;;;;19.88;100.00;96218.66;1712209;84;21526;-73
2022/07/11 01:37:56;;;;;;;26.12;19.85;;;;;;;19.90;100.00;96218.31;1702451;84;21080;-74
2022/07/11 01:40:26;;;;;;;26.57;19.77;;;;;;;19.89;100.00;96216.14;1642625;85;21097;-74
2022/07/11 01:42:53;;;;;;;23.80;18.37;;;;;;;19.88;100.00;96214.55;1665268;86;21056;-74
2022/07/11 01:45:22;;;;;;;24.70;17.62;;;;;;;19.88;100.00;96217.30;1665449;86;21526;-72
2022/07/11 01:47:49;;;;;;;22.45;15.68;;;;;;;19.89;100.00;96212.61;1665721;86;21021;-72
2022/07/11 01:50:16;;;;;;;25.48;17.48;;;;;;;19.88;100.00;96212.35;1643042;86;21112;-73
2022/07/11 01:52:43;;;;;;;23.55;17.90;;;;;;;19.87;100.00;96201.96;1666515;86;21045;-75
2022/07/11 01:55:12;;;;;;;28.10;18.23;;;;;;;19.88;100.00;96197.28;1642597;86;21422;-74
2022/07/11 01:57:39;;;;;;;27.52;18.65;;;;;;;19.89;100.00;96201.06;1665417;84;21077;-75
2022/07/11 02:00:11;;;;;;;26.33;18.95;;;;;;;19.89;100.00;96196.95;1663864;86;21056;-75
2022/07/11 02:02:37;;;;;;;26.30;18.90;;;;;;;19.86;100.00;96194.86;1665198;86;21025;-76
2022/07/11 02:05:05;;;;;;;26.70;18.77;;;;;;;19.86;100.00;96192.12;1620570;86;21046;-74
2022/07/11 02:10:18;;;;;;;27.05;19.35;;;;;;;19.88;100.00;96182.20;1665457;86;21029;-74
2022/07/11 02:12:45;;;;;;;27.48;16.50;;;;;;;19.87;100.00;96175.92;1665361;84;21506;-75
2022/07/11 02:15:13;;;;;;;22.98;15.98;;;;;;;19.87;100.00;96176.49;1642379;86;21541;-75
2022/07/11 02:17:40;;;;;;;22.95;14.78;;;;;;;19.86;100.00;96180.36;1665343;86;21013;-75
2022/07/11 02:20:08;;;;;;;20.62;13.72;;;;;;;19.85;100.00;96176.81;1665275;84;21077;-75
2022/07/11 02:22:36;;;;;;;19.17;12.40;;;;;;;19.84;100.00;96177.14;1688537;85;21054;-74
2022/07/11 02:25:06;;;;;;;19.25;12.73;;;;;;;19.84;100.00;96182.05;1652806;85;21106;-74
2022/07/11 02:27:34;;;;;;;16.30;10.93;;;;;;;19.82;100.00;96182.14;1671195;85;21042;-75
2022/07/11 02:30:01;;;;;;;18.15;11.22;;;;;;;19.82;100.00;96188.42;1664813;84;21018;-75
2022/07/11 02:32:28;;;;;;;14.40;9.48;;;;;;;19.83;100.00;96183.20;1664527;84;21081;-74
2022/07/11 02:34:55;;;;;;;15.90;9.58;;;;;;;19.85;100.00;96174.66;1664730;86;21074;-75
2022/07/11 02:37:22;;;;;;;14.45;9.55;;;;;;;19.86;100.00;96146.09;1664738;86;21026;-75
2022/07/11 02:39:49;;;;;;;13.83;8.70;;;;;;;19.87;100.00;96146.34;1643576;86;21054;-76
2022/07/11 02:42:16;;;;;;;16.02;8.93;;;;;;;19.88;100.00;96150.67;1664780;84;21479;-75
2022/07/11 02:44:43;;;;;;;13.13;8.60;;;;;;;19.87;100.00;96144.40;1664833;86;20986;-75
2022/07/11 02:47:10;;;;;;;14.03;8.10;;;;;;;19.88;100.00;96139.71;1664658;86;21006;-76
2022/07/11 02:49:37;;;;;;;11.93;8.35;;;;;;;19.88;100.00;96137.80;1666847;86;21581;-75
2022/07/11 02:52:05;;;;;;;13.65;8.25;;;;;;;19.89;100.00;96142.13;1666646;85;21057;-75
2022/07/11 02:54:32;;;;;;;14.85;8.95;;;;;;;19.90;100.00;96137.44;1649725;85;21567;-76
2022/07/11 02:57:01;;;;;;;14.45;9.33;;;;;;;19.91;100.00;96135.75;1666765;85;21124;-75
2022/07/11 02:59:28;;;;;;;16.75;9.43;;;;;;;19.91;100.00;96137.13;1664751;86;21010;-75
2022/07/11 03:01:56;;;;;;;14.15;8.95;;;;;;;19.91;100.00;96135.75;1643565;86;21030;-75
2022/07/11 03:04:23;;;;;;;14.85;8.90;;;;;;;19.92;100.00;96133.83;1664349;86;21061;-76
2022/07/11 03:06:50;;;;;;;15.65;8.80;;;;;;;19.93;100.00;96140.11;1643469;86;20979;-77
2022/07/11 03:09:17;;;;;;;14.65;9.23;;;;;;;19.95;100.00;96135.11;1664704;85;21054;-76
2022/07/11 03:11:45;;;;;;;15.23;9.55;;;;;;;19.96;100.00;96135.36;1663414;86;21021;-76
2022/07/11 03:14:12;;;;;;;14.70;9.08;;;;;;;19.98;100.00;96137.20;1660658;86;21047;-77
2022/07/11 03:16:39;;;;;;;13.78;8.58;;;;;;;19.99;100.00;96136.87;1665507;86;21040;-76
2022/07/11 03:19:07;;;;;;;10.15;7.20;;;;;;;20.02;100.00;96132.66;1672240;86;21102;-76
2022/07/11 03:21:34;;;;;;;12.37;7.40;;;;;;;20.02;100.00;96132.09;1659477;82;21044;-77
2022/07/11 03:24:03;;;;;;;12.05;7.97;;;;;;;20.00;100.00;96132.98;1721776;83;21101;-76
2022/07/11 03:26:30;;;;;;;10.20;7.08;;;;;;;19.97;100.00;96140.48;1707430;84;21038;-76
2022/07/11 03:28:58;;;;;;;9.28;6.55;;;;;;;19.97;100.00;96140.48;1707197;84;21034;-76
2022/07/11 03:31:26;;;;;;;12.70;6.83;;;;;;;19.97;100.00;96138.31;1685055;84;21461;-75
2022/07/11 03:33:53;;;;;;;11.25;7.00;;;;;;;19.98;100.00;96143.48;1707421;84;21034;-76
2022/07/11 03:36:20;;;;;;;12.03;6.85;;;;;;;19.99;100.00;96142.36;1685856;84;21166;-76
2022/07/11 03:38:47;;;;;;;11.53;7.12;;;;;;;19.99;100.00;96149.76;1709712;84;20981;-76
2022/07/11 03:41:14;;;;;;;10.40;6.83;;;;;;;19.96;100.00;96156.72;1707562;84;21053;-77
2022/07/11 03:43:41;;;;;;;9.95;6.95;;;;;;;19.95;100.00;96156.46;1685325;84;21014;-75
2022/07/11 03:46:08;;;;;;;11.48;7.05;;;;;;;19.97;100.00;96162.99;1707366;83;21011;-75
2022/07/11 03:48:37;;;;;;;11.20;7.22;;;;;;;19.97;100.00;96169.27;1707193;83;21038;-75
2022/07/11 03:51:04;;;;;;;10.20;6.97;;;;;;;20.00;100.00;96166.45;1707296;83;21007;-75
2022/07/11 03:53:32;;;;;;;10.85;6.80;;;;;;;19.99;100.00;96172.52;1707512;84;21018;-75
2022/07/11 03:55:59;;;;;;;9.28;6.97;;;;;;;19.99;100.00;96176.63;1707049;84;21031;-75
2022/07/11 03:58:26;;;;;;;11.50;6.62;;;;;;;19.97;100.00;96180.23;1707423;84;21050;-76
2022/07/11 04:00:53;;;;;;;12.80;7.97;;;;;;;19.96;100.00;96188.24;1707463;84;21543;-76
2022/07/11 04:03:20;;;;;;;10.68;7.10;;;;;;;19.96;100.00;96190.19;1707227;84;21042;-77
2022/07/11 04:05:47;;;;;;;12.07;7.62;;;;;;;19.95;100.00;96193.47;1707316;84;21051;-76
2022/07/11 04:08:14;;;;;;;12.85;6.90;;;;;;;19.91;100.00;96207.02;1707393;84;20994;-77
2022/07/11 04:10:41;;;;;;;13.28;6.87;;;;;;;19.89;100.00;96214.77;1707334;83;21070;-77
2022/07/11 04:13:09;;;;;;;11.65;6.40;;;;;;;19.87;100.00;96219.78;1707049;83;21007;-76
2022/07/11 04:15:36;;;;;;;8.75;6.25;;;;;;;19.87;100.00;96221.72;1707251;84;21101;-76
2022/07/11 04:18:04;;;;;;;10.70;6.10;;;;;;;19.86;100.00;96221.47;1707012;84;21512;-76
2022/07/11 04:20:31;;;;;;;12.68;6.83;;;;;;;19.85;100.00;96222.05;1707086;83;21090;-75
2022/07/11 04:22:58;;;;;;;10.05;5.45;;;;;;;19.85;100.00;96226.73;1720050;83;20987;-76
2022/07/11 04:25:25;;;;;;;9.75;5.50;;;;;;;19.85;100.00;96234.95;1719937;83;21538;-75
2022/07/11 04:27:53;;;;;;;10.70;5.28;;;;;;;19.85;100.00;96234.95;1719564;83;21050;-75
2022/07/11 04:30:20;;;;;;;8.38;4.90;;;;;;;19.82;100.00;96245.19;1720017;83;21038;-76
2022/07/11 04:32:48;;;;;;;12.80;5.65;;;;;;;19.78;100.00;96251.88;1719691;83;21081;-76
2022/07/11 04:35:17;;;;;;;10.48;5.40;;;;;;;19.77;100.00;96265.33;1719644;83;21097;-75
2022/07/11 04:37:45;;;;;;;9.70;5.30;;;;;;;19.76;100.00;96276.06;1720051;83;21026;-76
2022/07/11 04:40:12;;;;;;;8.08;5.08;;;;;;;19.73;100.00;96284.36;1720045;83;21014;-76
2022/07/11 04:42:40;;;;;;;10.23;5.37;;;;;;;19.74;100.00;96298.86;1719885;83;21510;-76
2022/07/11 04:45:08;;;;;;;8.85;5.37;;;;;;;19.73;100.00;96306.82;1719900;83;21026;-76
2022/07/11 04:47:36;;;;;;;9.35;5.22;;;;;;;19.74;100.00;96323.52;1719971;83;21029;-75
2022/07/11 04:50:04;;;;;;;13.00;8.98;;;;;;;19.73;100.00;96335.06;1719717;83;21046;-75
2022/07/11 04:52:31;;;;;;;8.65;6.00;;;;;;;19.73;100.00;96334.23;1719940;82;21045;-75
2022/07/11 04:54:58;;;;;;;7.80;5.00;;;;;;;19.71;100.00;96352.36;1697779;83;21042;-75
2022/07/11 04:57:26;;;;;;;14.90;8.88;;;;;;;19.70;100.00;96364.44;1720147;82;21076;-75
2022/07/11 04:59:53;;;;;;;16.20;11.30;;;;;;;19.68;100.00;96379.59;1720172;82;21042;-75
2022/07/11 05:02:20;;;;;;;13.78;6.83;;;;;;;19.67;100.00;96380.71;1720107;83;21044;-74
2022/07/11 05:04:47;;;;;;;8.45;5.10;;;;;;;19.67;100.00;96389.77;1719934;83;21041;-76
2022/07/11 05:07:15;;;;;;;9.70;6.12;;;;;;;19.70;100.00;96387.73;1697421;83;21070;-75
2022/07/11 05:09:42;;;;;;;12.10;6.60;;;;;;;19.70;100.00;96395.95;1719950;83;21566;-76
2022/07/11 05:12:09;;;;;;;9.75;7.72;;;;;;;19.74;100.00;96397.52;1688888;83;21068;-75
2022/07/11 05:14:36;;;;;;;15.80;9.08;;;;;;;19.79;100.00;96408.91;1724166;83;21048;-75
2022/07/11 05:17:04;;;;;;;15.00;10.23;;;;;;;19.81;100.00;96412.93;1701658;83;21024;-75
2022/07/11 05:19:31;;;;;;;14.83;8.13;;;;;;;19.84;100.00;96413.67;1701303;83;21024;-74
2022/07/11 05:21:57;;;;;;;13.40;6.03;;;;;;;19.84;100.00;96415.04;1702894;82;21053;-76
2022/07/11 05:24:25;;;;;;;11.55;5.60;;;;;;;19.86;100.00;96419.64;1726401;83;21044;-73
2022/07/11 05:26:52;;;;;;;9.95;5.53;;;;;;;19.90;100.00;96424.74;1723451;82;21048;-74
2022/07/11 05:29:19;;;;;;;8.70;5.42;;;;;;;19.90;100.00;96420.63;1724223;83;21487;-76
2022/07/11 05:31:50;;;;;;;9.35;5.35;;;;;;;19.93;100.00;96433.45;1724404;83;21020;-76
2022/07/11 05:34:17;;;;;;;8.30;5.30;;;;;;;19.95;100.00;96440.78;1724155;82;21084;-75
2022/07/11 05:36:44;;;;;;;10.93;5.40;;;;;;;19.97;100.00;96439.90;1724507;83;20985;-75
2022/07/11 05:39:11;;;;;;;9.55;5.65;;;;;;;19.98;100.00;96444.27;1724293;83;21525;-75
2022/07/11 05:41:39;;;;;;;10.65;5.33;;;;;;;20.00;100.00;96447.49;1723936;83;21696;-74
2022/07/11 05:44:07;;;;;;;12.07;5.92;;;;;;;19.99;100.00;96456.29;1701546;83;21049;-74
2022/07/11 05:46:39;;;;;;;13.80;6.25;;;;;;;19.99;100.00;96463.14;1667321;85;21085;-74
2022/07/11 05:49:03;;;;;;;9.25;5.17;;;;;;;20.02;100.00;96471.28;1666932;84;21086;-73
2022/07/11 05:51:32;;;;;;;10.63;5.25;;;;;;;20.02;100.00;96479.51;1654782;86;21047;-75
2022/07/11 05:54:00;;;;;;;10.85;5.20;;;;;;;20.00;100.00;96492.16;1660185;85;21011;-77
2022/07/11 05:56:28;;;;;;;11.68;5.10;;;;;;;20.00;100.00;96509.19;1667796;86;21061;-77
2022/07/11 05:58:55;;;;;;;12.43;6.47;;;;;;;19.96;100.00;96526.84;1647659;86;21495;-77
2022/07/11 06:01:22;;;;;;;10.93;6.72;;;;;;;19.94;100.00;96536.48;1669634;86;21141;-78
2022/07/11 06:03:49;;;;;;;12.93;7.55;;;;;;;19.95;100.00;96551.25;1669903;86;21078;-76
2022/07/11 06:06:17;;;;;;;16.25;9.83;;;;;;;19.95;100.00;96560.05;1646987;86;21530;-76
2022/07/11 06:08:44;;;;;;;36.70;32.78;;;;;;;19.94;100.00;96564.73;1647047;86;21159;-76
2022/07/11 06:11:14;;;;;;;31.77;23.92;;;;;;;19.95;100.00;96574.56;1702099;81;21028;-75
2022/07/11 06:13:44;;;;;;;22.13;12.90;;;;;;;19.96;100.00;96572.08;1766047;81;21606;-78
2022/07/11 06:16:11;;;;;;;12.75;7.87;;;;;;;19.96;100.00;96572.65;1734408;81;21460;-76
2022/07/11 06:18:40;;;;;;;11.68;6.67;;;;;;;19.97;100.00;96585.22;1734268;81;21070;-77
2022/07/11 06:21:07;;;;;;;9.90;6.00;;;;;;;19.98;100.00;96585.47;1764010;80;21035;-77
2022/07/11 06:23:36;;;;;;;11.88;6.05;;;;;;;19.99;100.00;96585.16;1758075;80;21630;-76
2022/07/11 06:26:04;;;;;;;11.83;6.08;;;;;;;20.01;100.00;96591.67;1758909;82;21043;-77
2022/07/11 06:28:31;;;;;;;17.50;8.78;;;;;;;20.02;100.00;96594.67;1737165;82;21099;-78
2022/07/11 06:30:58;;;;;;;13.13;5.33;;;;;;;20.04;100.00;96599.27;1758644;80;20992;-77
2022/07/11 06:33:25;;;;;;;25.82;15.88;;;;;;;20.04;100.00;96601.48;1758495;81;21062;-77
2022/07/11 06:35:52;;;;;;;28.65;21.48;;;;;;;20.04;100.00;96611.61;1737765;81;21043;-78
2022/07/11 06:38:20;;;;;;;19.80;12.25;;;;;;;20.06;100.00;96617.05;1706141;83;21537;-74
2022/07/11 06:40:47;;;;;;;11.57;6.47;;;;;;;20.11;100.00;96625.67;1694261;83;21033;-74
2022/07/11 06:43:16;;;;;;;9.05;4.97;;;;;;;20.15;100.00;96633.54;1693895;84;21052;-74
2022/07/11 06:45:44;;;;;;;7.95;4.47;;;;;;;20.20;100.00;96642.17;1693887;83;21542;-73
2022/07/11 06:48:11;;;;;;;10.30;5.28;;;;;;;20.21;100.00;96650.66;1694022;85;21005;-74
2022/07/11 06:50:38;;;;;;;8.40;4.95;;;;;;;20.23;100.00;96666.23;1694241;85;21056;-74
2022/07/11 06:53:05;;;;;;;8.48;4.72;;;;;;;20.25;100.00;96681.23;1694363;84;21040;-74
2022/07/11 06:55:33;;;;;;;8.18;5.03;;;;;;;20.22;100.00;96703.00;1694298;85;21116;-74
2022/07/11 06:58:01;;;;;;;10.93;5.60;;;;;;;20.19;100.00;96715.43;1693404;84;21052;-74
2022/07/11 07:00:28;;;;;;;10.30;5.20;;;;;;;20.15;100.00;96732.81;1693915;83;21533;-75
2022/07/11 07:02:56;;;;;;;10.28;6.33;;;;;;;20.11;100.00;96753.20;1693323;85;21087;-75
2022/07/11 07:05:26;;;;;;;15.88;6.60;;;;;;;20.08;100.00;96768.37;1693982;83;21505;-75
2022/07/11 07:07:53;;;;;;;45.48;38.05;;;;;;;20.08;100.00;96777.97;1692874;83;21119;-74
2022/07/11 07:10:22;;;;;;;49.05;41.98;;;;;;;20.13;100.00;96784.44;1696275;85;21071;-75
2022/07/11 07:12:49;;;;;;;21.27;13.68;;;;;;;20.19;100.00;96777.72;1694600;83;21029;-75
2022/07/11 07:15:16;;;;;;;12.98;8.25;;;;;;;20.24;100.00;96775.65;1694736;83;21851;-75
2022/07/11 07:17:47;;;;;;;15.08;6.92;;;;;;;20.28;100.00;96765.66;1636264;87;21018;-74
2022/07/11 07:20:15;;;;;;;19.73;11.60;;;;;;;20.38;100.00;96756.91;1614540;88;21088;-74
2022/07/11 07:22:42;;;;;;;13.15;7.97;;;;;;;20.49;100.00;96750.03;1664901;85;21054;-75
2022/07/11 07:25:09;;;;;;;14.47;8.35;;;;;;;20.60;100.00;96740.39;1665683;85;21054;-75
2022/07/11 07:27:37;;;;;;;14.70;9.25;;;;;;;20.70;100.00;96725.61;1688462;84;21094;-75
2022/07/11 07:30:05;;;;;;;17.52;12.15;;;;;;;20.77;100.00;96725.95;1689318;84;21097;-75
2022/07/11 07:32:32;;;;;;;17.05;9.55;;;;;;;20.85;100.00;96720.23;1688203;85;21067;-75
2022/07/11 07:35:00;;;;;;;19.17;11.38;;;;;;;20.93;100.00;96717.26;1686893;85;21359;-73
2022/07/11 07:37:27;;;;;;;15.00;9.70;;;;;;;21.02;100.00;96708.50;1686453;85;21062;-74
2022/07/11 07:39:54;;;;;;;17.62;10.10;;;;;;;21.12;100.00;96706.79;1686501;85;21046;-74
2022/07/11 07:42:21;;;;;;;14.45;10.00;;;;;;;21.16;100.00;96703.66;1686837;84;21555;-73
2022/07/11 07:44:48;;;;;;;16.82;10.50;;;;;;;21.16;100.00;96711.08;1663983;85;21030;-74
2022/07/11 07:47:16;;;;;;;17.98;11.35;;;;;;;21.17;100.00;96723.13;1687110;85;21125;-74
2022/07/11 07:49:43;;;;;;;20.12;11.68;;;;;;;21.19;100.00;96725.55;1688276;85;20998;-73
2022/07/11 07:52:10;;;;;;;15.48;9.98;;;;;;;21.19;100.00;96744.20;1688396;85;21030;-74
2022/07/11 07:54:37;;;;;;;19.25;12.33;;;;;;;21.24;100.00;96758.38;1688666;84;21532;-73
2022/07/11 07:57:05;;;;;;;18.73;11.45;;;;;;;21.28;100.00;96764.03;1687755;84;21117;-73
2022/07/11 07:59:33;;;;;;;20.25;12.05;;;;;;;21.34;100.00;96776.50;1663505;85;21740;-74
2022/07/11 08:02:01;;;;;;;19.57;12.35;;;;;;;21.40;100.00;96782.88;1687195;85;21039;-75
2022/07/11 08:04:29;;;;;;;18.48;11.50;;;;;;;21.42;100.00;96788.05;1687557;85;21118;-75
2022/07/11 08:06:59;;;;;;;16.80;11.05;;;;;;;21.46;100.00;96800.08;1687109;85;21544;-74
2022/07/11 08:09:25;;;;;;;17.35;11.73;;;;;;;21.48;100.00;96817.59;1749095;82;21492;-74
2022/07/11 08:11:55;;;;;;;20.80;12.93;;;;;;;21.53;100.00;96830.64;1750228;82;21016;-75
2022/07/11 08:14:27;;;;;;;20.43;12.58;;;;;;;21.59;100.00;96847.79;1750674;82;21548;-73
2022/07/11 08:16:53;;;;;;;18.25;12.28;;;;;;;21.65;100.00;96847.86;1750078;82;21273;-74
2022/07/11 08:19:21;;;;;;;18.82;12.55;;;;;;;21.69;100.00;96865.91;1729612;82;21007;-73
2022/07/11 08:21:48;;;;;;;19.20;12.37;;;;;;;21.76;100.00;96871.73;1750977;82;22586;-74
2022/07/11 08:24:16;;;;;;;19.05;12.37;;;;;;;21.85;100.00;96879.45;1737340;81;21043;-73
2022/07/11 08:26:45;;;;;;;17.62;11.97;;;;;;;21.97;100.00;96887.05;1738238;81;21015;-73
2022/07/11 08:29:12;;;;;;;17.48;11.90;;;;;;;22.11;100.00;96886.33;1707176;84;21573;-73
2022/07/11 08:31:40;;;;;;;17.85;12.23;;;;;;;22.27;100.00;96901.02;1694857;84;21056;-74
2022/07/11 08:34:07;;;;;;;18.87;12.30;;;;;;;22.45;100.00;96906.77;1694557;85;21081;-74
2022/07/11 08:36:35;;;;;;;20.00;12.05;;;;;;;22.65;100.00;96909.98;1671275;85;21569;-73
2022/07/11 08:39:02;;;;;;;18.70;12.18;;;;;;;22.80;100.00;96930.11;1671133;85;21040;-74
2022/07/11 08:41:30;;;;;;;18.75;12.18;;;;;;;22.92;100.00;96955.05;1694550;83;21044;-73
2022/07/11 08:43:58;;;;;;;19.85;12.60;;;;;;;23.00;100.00;96978.77;1694729;84;21025;-71
2022/07/11 08:46:27;;;;;;;19.60;13.15;;;;;;;22.99;100.00;97026.19;1694940;84;21044;-73
2022/07/11 08:48:54;;;;;;;18.75;12.43;;;;;;;22.95;100.00;97073.44;1694672;84;21092;-73
2022/07/11 08:51:22;;;;;;;20.10;14.33;;;;;;;22.90;100.00;97111.59;1671011;85;21084;-74
2022/07/11 08:53:50;;;;;;;20.97;13.18;;;;;;;22.83;100.00;97146.27;1694837;84;21052;-71
2022/07/11 08:56:18;;;;;;;19.37;12.65;;;;;;;22.77;100.00;97169.03;1694369;85;21052;-73
2022/07/11 08:58:46;;;;;;;21.25;13.72;;;;;;;22.66;100.00;97193.85;1694835;84;21516;-76
2022/07/11 09:01:16;;;;;;;20.92;13.85;;;;;;;22.56;100.00;97214.25;1694542;85;21013;-72
2022/07/11 09:03:44;;;;;;;23.07;13.58;;;;;;;22.51;100.00;97226.77;1670689;84;21068;-74
2022/07/11 09:06:13;;;;;;;21.97;14.23;;;;;;;22.51;100.00;97232.28;1670828;86;21523;-74
2022/07/11 09:08:40;;;;;;;22.55;13.83;;;;;;;22.54;100.00;97233.00;1670717;85;21037;-74
2022/07/11 09:11:07;;;;;;;22.95;14.45;;;;;;;22.63;100.00;97233.87;1670306;86;21021;-73
2022/07/11 09:13:34;;;;;;;22.95;14.65;;;;;;;22.70;100.00;97240.27;1670930;86;21025;-71
2022/07/11 09:16:03;;;;;;;22.98;15.50;;;;;;;22.74;100.00;97248.96;1669782;86;21089;-73
2022/07/11 09:18:41;;;;;;;23.87;15.48;;;;;;;22.80;100.00;97257.89;1670621;86;21045;-70
2022/07/11 09:26:51;;;;;;;19.30;11.70;;;;;;;22.96;100.00;97272.03;1657106;84;21587;-71
2022/07/11 09:29:21;;;;;;;20.08;11.88;;;;;;;22.84;100.00;97307.64;1687582;84;21125;-71
2022/07/11 09:31:49;;;;;;;20.82;12.10;;;;;;;22.78;100.00;97322.70;1710894;84;21061;-72
2022/07/11 09:34:18;;;;;;;18.82;10.82;;;;;;;22.71;100.00;97365.27;1709708;84;21054;-74
2022/07/11 09:36:50;;;;;;;21.90;10.93;;;;;;;22.56;100.00;97431.20;1710066;84;21538;-71
2022/07/11 09:39:26;;;;;;;18.87;10.98;;;;;;;22.35;100.00;97455.66;1710087;84;21045;-72
2022/07/11 09:41:53;;;;;;;17.98;10.90;;;;;;;22.16;100.00;97462.66;1686136;84;21657;-72
2022/07/11 09:44:33;;;;;;;14.80;10.35;;;;;;;22.02;100.00;97454.19;1710153;84;21434;-72
2022/07/11 09:46:58;;;;;;;16.87;10.30;;;;;;;21.92;100.00;97443.67;1710202;84;21034;-72
2022/07/11 09:49:36;;;;;;;20.17;14.00;;;;;;;21.80;100.00;97431.01;1711439;84;21038;-71
2022/07/11 09:52:15;;;;;;;14.85;10.30;;;;;;;21.70;100.00;97422.97;1710676;84;21563;-72
2022/07/11 09:54:54;;;;;;;18.12;10.95;;;;;;;21.63;100.00;97415.70;1711504;84;21154;-72
2022/07/11 09:57:38;;;;;;;20.88;15.28;;;;;;;21.57;100.00;97405.38;1711613;84;21034;-73
2022/07/11 10:00:09;;;;;;;20.32;13.10;;;;;;;21.55;100.00;97393.31;1719947;81;21497;-71
2022/07/11 10:02:38;;;;;;;17.45;11.18;;;;;;;21.54;100.00;97377.92;1707650;83;21051;-70
2022/07/11 10:05:06;;;;;;;17.42;10.05;;;;;;;21.54;100.00;97369.67;1684105;84;21528;-70
2022/07/11 10:07:33;;;;;;;16.32;9.43;;;;;;;21.57;100.00;97364.94;1707227;84;21023;-73
2022/07/11 10:10:03;;;;;;;17.20;9.08;;;;;;;21.61;100.00;97364.56;1707505;84;21115;-72
2022/07/11 10:12:32;;;;;;;14.75;8.65;;;;;;;21.65;100.00;97355.14;1682468;84;21007;-71
2022/07/11 10:15:07;;;;;;;10.82;7.47;;;;;;;21.68;100.00;97353.16;1678318;85;21026;-72
2022/07/11 10:18:02;;;;;;;14.98;8.10;;;;;;;21.74;100.00;97353.30;1595911;90;21068;-72
2022/07/11 10:21:02;;;;;;;35.10;31.27;;;;;;;21.86;100.00;97340.37;1593050;90;21077;-72
2022/07/11 10:23:43;;;;;;;15.83;10.28;;;;;;;22.07;100.00;97319.27;1604765;88;21096;-72
2022/07/11 10:26:18;;;;;;;12.07;7.83;;;;;;;22.32;100.00;97299.38;1587476;89;21053;-72
2022/07/11 10:28:55;;;;;;;13.18;8.85;;;;;;;22.66;100.00;97280.59;1608456;88;21514;-71
2022/07/11 10:31:27;;;;;;;10.50;7.10;;;;;;;22.85;100.00;97288.05;1608728;88;21080;-72
2022/07/11 10:34:19;;;;;;;13.00;7.35;;;;;;;22.88;100.00;97309.45;1608455;89;21566;-71
2022/07/11 10:36:46;;;;;;;11.63;6.67;;;;;;;22.86;100.00;97342.02;1556617;92;21091;-72
2022/07/11 10:39:26;;;;;;;14.03;6.72;;;;;;;22.79;100.00;97365.09;1557285;92;21616;-71
2022/07/11 10:41:55;;;;;;;11.10;6.47;;;;;;;22.71;100.00;97382.37;1558538;92;21145;-71
2022/07/11 10:44:22;;;;;;;12.00;6.45;;;;;;;22.58;100.00;97402.55;1558137;92;21192;-73
2022/07/11 10:46:53;;;;;;;15.85;7.25;;;;;;;22.48;100.00;97421.50;1556849;92;21605;-71
2022/07/11 10:49:25;;;;;;;12.05;7.12;;;;;;;22.34;100.00;97443.00;1557690;91;21115;-71
2022/07/11 10:52:05;;;;;;;9.43;6.53;;;;;;;22.23;100.00;97458.11;1524138;94;21098;-72
2022/07/11 10:54:52;;;;;;;10.90;6.58;;;;;;;22.14;100.00;97459.41;1529374;92;21023;-72
2022/07/11 10:57:46;;;;;;;14.28;7.17;;;;;;;22.06;100.00;97468.41;1484436;95;21173;-72
2022/07/11 11:00:15;;;;;;;13.05;7.62;;;;;;;22.00;100.00;97468.25;1483554;95;21592;-73
2022/07/11 11:03:07;;;;;;;14.07;7.40;;;;;;;22.04;100.00;97457.44;1483511;97;21119;-72
2022/07/11 11:05:48;;;;;;;11.33;6.77;;;;;;;22.15;100.00;97439.56;1483706;96;21118;-72
2022/07/11 11:08:40;;;;;;;14.45;8.03;;;;;;;22.15;100.00;97439.56;1483166;97;22088;-72
2022/07/11 11:14:22;;;;;;;12.53;7.12;;;;;;;22.39;100.00;97430.27;1431815;99;21766;-73
2022/07/11 11:16:49;;;;;;;11.93;7.65;;;;;;;22.56;100.00;97420.19;1419643;101;21120;-72
2022/07/11 11:19:51;;;;;;;12.03;7.33;;;;;;;22.61;100.00;97428.06;1399122;102;21156;-71
2022/07/11 11:22:21;;;;;;;14.53;7.85;;;;;;;22.66;100.00;97427.94;1470940;97;21162;-73
2022/07/11 11:24:52;;;;;;;29.20;24.85;;;;;;;22.89;100.00;97425.97;1459651;97;21166;-77
2022/07/11 11:27:24;;;;;;;14.15;9.15;;;;;;;23.06;100.00;97420.59;1434324;100;21154;-76
2022/07/11 11:29:55;;;;;;;13.95;7.85;;;;;;;23.22;100.00;97425.69;1434756;100;21168;-77
2022/07/11 11:32:30;;;;;;;17.98;9.15;;;;;;;23.31;100.00;97430.09;1434754;99;21604;-78
2022/07/11 11:34:58;;;;;;;17.30;9.73;;;;;;;23.39;100.00;97445.61;1448552;98;21726;-79